sensor_id;sensor_type;location;lat;lon;timestamp;P1;durP1;ratioP1;P2;durP2;ratioP2
22924;SDS011;11628;51.072;3.712;2022-12-08T00:00:47;18.40;;;11.73;;
22924;SDS011;11628;51.072;3.712;2022-12-08T00:03:13;20.67;;;12.77;;
22924;SDS011;11628;51.072;3.712;2022-12-08T00:05:48;16.38;;;10.55;;
22924;SDS011;11628;51.072;3.712;2022-12-08T00:08:32;12.15;;;10.68;;
22924;SDS011;11628;51.072;3.712;2022-12-08T00:11:17;17.38;;;12.10;;
22924;SDS011;11628;51.072;3.712;2022-12-08T00:13:43;17.40;;;11.85;;
22924;SDS011;11628;51.072;3.712;2022-12-08T00:16:09;18.13;;;12.20;;
22924;SDS011;11628;51.072;3.712;2022-12-08T00:18:35;15.57;;;11.73;;
22924;SDS011;11628;51.072;3.712;2022-12-08T00:21:01;18.02;;;13.02;;
22924;SDS011;11628;51.072;3.712;2022-12-08T00:23:26;22.75;;;13.85;;
22924;SDS011;11628;51.072;3.712;2022-12-08T00:25:52;18.63;;;12.70;;
22924;SDS011;11628;51.072;3.712;2022-12-08T00:28:18;16.27;;;12.52;;
22924;SDS011;11628;51.072;3.712;2022-12-08T00:30:44;18.17;;;13.15;;
22924;SDS011;11628;51.072;3.712;2022-12-08T00:33:10;18.35;;;12.88;;
22924;SDS011;11628;51.072;3.712;2022-12-08T00:35:37;20.77;;;12.15;;
22924;SDS011;11628;51.072;3.712;2022-12-08T00:38:03;21.00;;;12.63;;
22924;SDS011;11628;51.072;3.712;2022-12-08T00:40:29;16.75;;;12.57;;
22924;SDS011;11628;51.072;3.712;2022-12-08T00:42:55;19.65;;;12.48;;
22924;SDS011;11628;51.072;3.712;2022-12-08T00:45:21;14.77;;;11.02;;
22924;SDS011;11628;51.072;3.712;2022-12-08T00:47:47;21.38;;;12.23;;
22924;SDS011;11628;51.072;3.712;2022-12-08T00:50:12;17.63;;;12.75;;
22924;SDS011;11628;51.072;3.712;2022-12-08T00:52:38;18.08;;;12.00;;
22924;SDS011;11628;51.072;3.712;2022-12-08T00:55:04;19.63;;;11.73;;
22924;SDS011;11628;51.072;3.712;2022-12-08T00:57:30;15.85;;;12.13;;
22924;SDS011;11628;51.072;3.712;2022-12-08T00:59:56;19.45;;;11.60;;
22924;SDS011;11628;51.072;3.712;2022-12-08T01:02:22;20.98;;;12.60;;
22924;SDS011;11628;51.072;3.712;2022-12-08T01:04:48;17.15;;;11.90;;
22924;SDS011;11628;51.072;3.712;2022-12-08T01:07:14;21.58;;;12.57;;
22924;SDS011;11628;51.072;3.712;2022-12-08T01:09:40;21.48;;;12.55;;
22924;SDS011;11628;51.072;3.712;2022-12-08T01:12:06;18.52;;;11.80;;
22924;SDS011;11628;51.072;3.712;2022-12-08T01:14:32;17.02;;;12.32;;
22924;SDS011;11628;51.072;3.712;2022-12-08T01:16:58;17.30;;;12.50;;
22924;SDS011;11628;51.072;3.712;2022-12-08T01:19:24;17.33;;;12.77;;
22924;SDS011;11628;51.072;3.712;2022-12-08T01:21:50;18.38;;;12.60;;
22924;SDS011;11628;51.072;3.712;2022-12-08T01:24:17;22.33;;;14.02;;
22924;SDS011;11628;51.072;3.712;2022-12-08T01:26:43;18.58;;;13.65;;
22924;SDS011;11628;51.072;3.712;2022-12-08T01:29:10;18.70;;;13.43;;
22924;SDS011;11628;51.072;3.712;2022-12-08T01:31:36;18.10;;;13.82;;
22924;SDS011;11628;51.072;3.712;2022-12-08T01:34:02;19.73;;;12.68;;
22924;SDS011;11628;51.072;3.712;2022-12-08T01:36:29;21.00;;;13.73;;
22924;SDS011;11628;51.072;3.712;2022-12-08T01:38:58;17.95;;;13.82;;
22924;SDS011;11628;51.072;3.712;2022-12-08T01:41:26;18.67;;;12.45;;
22924;SDS011;11628;51.072;3.712;2022-12-08T01:46:23;20.80;;;14.43;;
22924;SDS011;11628;51.072;3.712;2022-12-08T01:49:12;22.35;;;13.93;;
22924;SDS011;11628;51.072;3.712;2022-12-08T01:51:54;18.63;;;13.40;;
22924;SDS011;11628;51.072;3.712;2022-12-08T01:54:30;17.38;;;12.70;;
22924;SDS011;11628;51.072;3.712;2022-12-08T01:57:00;21.13;;;12.73;;
22924;SDS011;11628;51.072;3.712;2022-12-08T01:59:38;17.42;;;11.98;;
22924;SDS011;11628;51.072;3.712;2022-12-08T02:02:08;14.68;;;11.20;;
22924;SDS011;11628;51.072;3.712;2022-12-08T02:04:35;17.52;;;11.63;;
22924;SDS011;11628;51.072;3.712;2022-12-08T02:07:01;17.05;;;11.77;;
22924;SDS011;11628;51.072;3.712;2022-12-08T02:09:28;17.70;;;11.57;;
22924;SDS011;11628;51.072;3.712;2022-12-08T02:11:53;19.23;;;11.95;;
22924;SDS011;11628;51.072;3.712;2022-12-08T02:14:22;15.98;;;11.30;;
22924;SDS011;11628;51.072;3.712;2022-12-08T02:16:54;18.30;;;11.98;;
22924;SDS011;11628;51.072;3.712;2022-12-08T02:22:26;14.13;;;11.88;;
22924;SDS011;11628;51.072;3.712;2022-12-08T02:36:30;18.17;;;12.02;;
22924;SDS011;11628;51.072;3.712;2022-12-08T02:41:55;14.43;;;11.25;;
22924;SDS011;11628;51.072;3.712;2022-12-08T02:44:45;16.45;;;10.65;;
22924;SDS011;11628;51.072;3.712;2022-12-08T02:47:17;14.60;;;10.07;;
22924;SDS011;11628;51.072;3.712;2022-12-08T02:49:44;15.02;;;10.88;;
22924;SDS011;11628;51.072;3.712;2022-12-08T02:54:36;17.60;;;9.80;;
22924;SDS011;11628;51.072;3.712;2022-12-08T02:57:21;12.63;;;8.48;;
22924;SDS011;11628;51.072;3.712;2022-12-08T03:02:38;11.38;;;7.00;;
22924;SDS011;11628;51.072;3.712;2022-12-08T03:05:32;6.78;;;6.07;;
22924;SDS011;11628;51.072;3.712;2022-12-08T03:11:03;8.88;;;5.75;;
22924;SDS011;11628;51.072;3.712;2022-12-08T03:13:45;8.75;;;5.13;;
22924;SDS011;11628;51.072;3.712;2022-12-08T03:16:16;7.70;;;4.53;;
22924;SDS011;11628;51.072;3.712;2022-12-08T03:18:47;5.32;;;3.88;;
22924;SDS011;11628;51.072;3.712;2022-12-08T03:21:17;6.40;;;3.40;;
22924;SDS011;11628;51.072;3.712;2022-12-08T03:23:45;5.22;;;3.42;;
22924;SDS011;11628;51.072;3.712;2022-12-08T03:26:16;8.63;;;4.90;;
22924;SDS011;11628;51.072;3.712;2022-12-08T03:28:46;7.78;;;5.40;;
22924;SDS011;11628;51.072;3.712;2022-12-08T03:31:12;11.30;;;6.70;;
22924;SDS011;11628;51.072;3.712;2022-12-08T03:33:40;10.80;;;8.05;;
22924;SDS011;11628;51.072;3.712;2022-12-08T03:36:08;10.68;;;8.05;;
22924;SDS011;11628;51.072;3.712;2022-12-08T03:38:40;11.73;;;8.23;;
22924;SDS011;11628;51.072;3.712;2022-12-08T03:41:07;13.95;;;9.00;;
22924;SDS011;11628;51.072;3.712;2022-12-08T03:43:49;14.93;;;8.95;;
22924;SDS011;11628;51.072;3.712;2022-12-08T03:46:21;13.93;;;8.90;;
22924;SDS011;11628;51.072;3.712;2022-12-08T03:48:49;12.27;;;9.43;;
22924;SDS011;11628;51.072;3.712;2022-12-08T03:51:15;11.80;;;10.27;;
22924;SDS011;11628;51.072;3.712;2022-12-08T03:53:41;15.70;;;10.45;;
22924;SDS011;11628;51.072;3.712;2022-12-08T03:56:15;15.32;;;9.93;;
22924;SDS011;11628;51.072;3.712;2022-12-08T03:58:48;14.80;;;10.80;;
22924;SDS011;11628;51.072;3.712;2022-12-08T04:01:14;15.38;;;10.75;;
22924;SDS011;11628;51.072;3.712;2022-12-08T04:03:40;17.45;;;10.60;;
22924;SDS011;11628;51.072;3.712;2022-12-08T04:06:06;19.38;;;11.82;;
22924;SDS011;11628;51.072;3.712;2022-12-08T04:08:32;18.70;;;10.18;;
22924;SDS011;11628;51.072;3.712;2022-12-08T04:10:58;18.60;;;11.10;;
22924;SDS011;11628;51.072;3.712;2022-12-08T04:13:23;17.42;;;10.38;;
22924;SDS011;11628;51.072;3.712;2022-12-08T04:15:49;16.85;;;10.15;;
22924;SDS011;11628;51.072;3.712;2022-12-08T04:18:15;15.27;;;9.85;;
22924;SDS011;11628;51.072;3.712;2022-12-08T04:20:42;13.77;;;10.65;;
22924;SDS011;11628;51.072;3.712;2022-12-08T04:23:08;15.80;;;9.40;;
22924;SDS011;11628;51.072;3.712;2022-12-08T04:25:35;16.48;;;9.60;;
22924;SDS011;11628;51.072;3.712;2022-12-08T04:28:01;13.90;;;9.18;;
22924;SDS011;11628;51.072;3.712;2022-12-08T04:30:28;12.07;;;8.95;;
22924;SDS011;11628;51.072;3.712;2022-12-08T04:32:54;12.65;;;8.70;;
22924;SDS011;11628;51.072;3.712;2022-12-08T04:35:20;11.88;;;8.50;;
22924;SDS011;11628;51.072;3.712;2022-12-08T04:37:45;14.85;;;9.55;;
22924;SDS011;11628;51.072;3.712;2022-12-08T04:40:11;14.50;;;10.05;;
22924;SDS011;11628;51.072;3.712;2022-12-08T04:42:37;15.30;;;10.00;;
22924;SDS011;11628;51.072;3.712;2022-12-08T04:45:03;14.77;;;10.30;;
22924;SDS011;11628;51.072;3.712;2022-12-08T04:47:29;13.52;;;10.45;;
22924;SDS011;11628;51.072;3.712;2022-12-08T04:49:55;18.08;;;11.73;;
22924;SDS011;11628;51.072;3.712;2022-12-08T04:52:21;16.02;;;10.70;;
22924;SDS011;11628;51.072;3.712;2022-12-08T04:54:47;18.77;;;13.13;;
22924;SDS011;11628;51.072;3.712;2022-12-08T04:57:12;18.38;;;12.00;;
22924;SDS011;11628;51.072;3.712;2022-12-08T04:59:38;21.40;;;12.93;;
22924;SDS011;11628;51.072;3.712;2022-12-08T05:02:04;18.33;;;12.35;;
22924;SDS011;11628;51.072;3.712;2022-12-08T05:04:29;14.80;;;12.13;;
22924;SDS011;11628;51.072;3.712;2022-12-08T05:06:56;16.27;;;12.00;;
22924;SDS011;11628;51.072;3.712;2022-12-08T05:09:21;18.48;;;12.20;;
22924;SDS011;11628;51.072;3.712;2022-12-08T05:11:47;20.60;;;12.40;;
22924;SDS011;11628;51.072;3.712;2022-12-08T05:14:13;18.17;;;12.25;;
22924;SDS011;11628;51.072;3.712;2022-12-08T05:16:40;16.98;;;12.00;;
22924;SDS011;11628;51.072;3.712;2022-12-08T05:19:06;14.45;;;11.35;;
22924;SDS011;11628;51.072;3.712;2022-12-08T05:21:32;18.88;;;12.68;;
22924;SDS011;11628;51.072;3.712;2022-12-08T05:23:58;20.48;;;12.27;;
22924;SDS011;11628;51.072;3.712;2022-12-08T05:26:24;16.48;;;12.55;;
22924;SDS011;11628;51.072;3.712;2022-12-08T05:28:50;25.10;;;14.95;;
22924;SDS011;11628;51.072;3.712;2022-12-08T05:31:16;21.00;;;12.70;;
22924;SDS011;11628;51.072;3.712;2022-12-08T05:33:43;16.02;;;11.52;;
22924;SDS011;11628;51.072;3.712;2022-12-08T05:36:13;20.13;;;11.70;;
22924;SDS011;11628;51.072;3.712;2022-12-08T05:38:39;21.83;;;13.18;;
22924;SDS011;11628;51.072;3.712;2022-12-08T05:41:06;18.05;;;12.15;;
22924;SDS011;11628;51.072;3.712;2022-12-08T05:43:32;17.90;;;12.35;;
22924;SDS011;11628;51.072;3.712;2022-12-08T05:45:58;20.92;;;13.32;;
22924;SDS011;11628;51.072;3.712;2022-12-08T05:48:24;18.00;;;12.63;;
22924;SDS011;11628;51.072;3.712;2022-12-08T05:50:50;16.80;;;11.85;;
22924;SDS011;11628;51.072;3.712;2022-12-08T05:53:16;19.77;;;13.10;;
22924;SDS011;11628;51.072;3.712;2022-12-08T05:55:43;16.38;;;12.65;;
22924;SDS011;11628;51.072;3.712;2022-12-08T05:58:17;19.75;;;13.25;;
22924;SDS011;11628;51.072;3.712;2022-12-08T06:00:44;19.05;;;13.27;;
22924;SDS011;11628;51.072;3.712;2022-12-08T06:03:11;20.95;;;12.40;;
22924;SDS011;11628;51.072;3.712;2022-12-08T06:05:39;16.50;;;12.57;;
22924;SDS011;11628;51.072;3.712;2022-12-08T06:08:05;19.50;;;12.23;;
22924;SDS011;11628;51.072;3.712;2022-12-08T06:10:31;20.08;;;12.77;;
22924;SDS011;11628;51.072;3.712;2022-12-08T06:12:57;16.63;;;12.18;;
22924;SDS011;11628;51.072;3.712;2022-12-08T06:15:22;16.90;;;12.27;;
22924;SDS011;11628;51.072;3.712;2022-12-08T06:17:48;15.07;;;12.10;;
22924;SDS011;11628;51.072;3.712;2022-12-08T06:20:14;19.52;;;12.88;;
22924;SDS011;11628;51.072;3.712;2022-12-08T06:22:39;21.27;;;12.38;;
22924;SDS011;11628;51.072;3.712;2022-12-08T06:25:05;20.92;;;13.43;;
22924;SDS011;11628;51.072;3.712;2022-12-08T06:27:32;20.15;;;12.68;;
22924;SDS011;11628;51.072;3.712;2022-12-08T06:29:58;15.98;;;11.07;;
22924;SDS011;11628;51.072;3.712;2022-12-08T06:32:24;16.83;;;12.63;;
22924;SDS011;11628;51.072;3.712;2022-12-08T06:34:51;20.55;;;12.00;;
22924;SDS011;11628;51.072;3.712;2022-12-08T06:37:17;21.20;;;13.52;;
22924;SDS011;11628;51.072;3.712;2022-12-08T06:39:43;16.83;;;11.05;;
22924;SDS011;11628;51.072;3.712;2022-12-08T06:42:09;20.70;;;13.52;;
22924;SDS011;11628;51.072;3.712;2022-12-08T06:44:56;17.52;;;13.45;;
22924;SDS011;11628;51.072;3.712;2022-12-08T06:47:22;23.02;;;15.30;;
22924;SDS011;11628;51.072;3.712;2022-12-08T06:49:48;16.65;;;12.20;;
22924;SDS011;11628;51.072;3.712;2022-12-08T06:52:14;15.45;;;11.27;;
22924;SDS011;11628;51.072;3.712;2022-12-08T06:54:39;17.42;;;11.35;;
22924;SDS011;11628;51.072;3.712;2022-12-08T06:57:05;19.25;;;10.85;;
22924;SDS011;11628;51.072;3.712;2022-12-08T06:59:31;13.40;;;10.52;;
22924;SDS011;11628;51.072;3.712;2022-12-08T07:01:57;16.75;;;11.25;;
22924;SDS011;11628;51.072;3.712;2022-12-08T07:04:22;17.38;;;10.10;;
22924;SDS011;11628;51.072;3.712;2022-12-08T07:06:48;15.32;;;9.98;;
22924;SDS011;11628;51.072;3.712;2022-12-08T07:09:14;14.65;;;9.32;;
22924;SDS011;11628;51.072;3.712;2022-12-08T07:11:40;13.35;;;9.93;;
22924;SDS011;11628;51.072;3.712;2022-12-08T07:14:05;15.63;;;9.80;;
22924;SDS011;11628;51.072;3.712;2022-12-08T07:16:31;14.38;;;9.70;;
22924;SDS011;11628;51.072;3.712;2022-12-08T07:18:58;14.63;;;9.23;;
22924;SDS011;11628;51.072;3.712;2022-12-08T07:21:24;11.70;;;8.27;;
22924;SDS011;11628;51.072;3.712;2022-12-08T07:23:50;9.30;;;7.35;;
22924;SDS011;11628;51.072;3.712;2022-12-08T07:26:15;9.35;;;5.90;;
22924;SDS011;11628;51.072;3.712;2022-12-08T07:28:41;7.90;;;5.57;;
22924;SDS011;11628;51.072;3.712;2022-12-08T07:31:14;7.82;;;5.95;;
22924;SDS011;11628;51.072;3.712;2022-12-08T07:33:47;8.10;;;4.70;;
22924;SDS011;11628;51.072;3.712;2022-12-08T07:36:14;11.02;;;4.85;;
22924;SDS011;11628;51.072;3.712;2022-12-08T07:38:41;7.40;;;4.03;;
22924;SDS011;11628;51.072;3.712;2022-12-08T07:41:11;6.22;;;4.20;;
22924;SDS011;11628;51.072;3.712;2022-12-08T07:43:38;7.97;;;3.42;;
22924;SDS011;11628;51.072;3.712;2022-12-08T07:46:04;8.07;;;3.55;;
22924;SDS011;11628;51.072;3.712;2022-12-08T07:48:30;10.25;;;3.80;;
22924;SDS011;11628;51.072;3.712;2022-12-08T07:51:00;8.38;;;3.08;;
22924;SDS011;11628;51.072;3.712;2022-12-08T07:53:27;4.70;;;2.65;;
22924;SDS011;11628;51.072;3.712;2022-12-08T07:55:53;6.40;;;2.50;;
22924;SDS011;11628;51.072;3.712;2022-12-08T07:58:18;16.02;;;3.45;;
22924;SDS011;11628;51.072;3.712;2022-12-08T08:00:44;6.05;;;2.83;;
22924;SDS011;11628;51.072;3.712;2022-12-08T08:03:10;5.82;;;2.20;;
22924;SDS011;11628;51.072;3.712;2022-12-08T08:05:36;4.63;;;2.25;;
22924;SDS011;11628;51.072;3.712;2022-12-08T08:08:02;11.20;;;3.00;;
22924;SDS011;11628;51.072;3.712;2022-12-08T08:10:28;7.32;;;2.58;;
22924;SDS011;11628;51.072;3.712;2022-12-08T08:12:53;13.55;;;4.32;;
22924;SDS011;11628;51.072;3.712;2022-12-08T08:15:23;6.78;;;2.97;;
22924;SDS011;11628;51.072;3.712;2022-12-08T08:17:49;5.68;;;2.75;;
22924;SDS011;11628;51.072;3.712;2022-12-08T08:20:15;14.25;;;3.45;;
22924;SDS011;11628;51.072;3.712;2022-12-08T08:22:47;7.95;;;3.13;;
22924;SDS011;11628;51.072;3.712;2022-12-08T08:25:13;6.60;;;3.40;;
22924;SDS011;11628;51.072;3.712;2022-12-08T08:27:40;5.03;;;2.78;;
22924;SDS011;11628;51.072;3.712;2022-12-08T08:30:07;9.23;;;3.63;;
22924;SDS011;11628;51.072;3.712;2022-12-08T08:32:35;8.65;;;3.80;;
22924;SDS011;11628;51.072;3.712;2022-12-08T08:35:01;11.93;;;4.55;;
22924;SDS011;11628;51.072;3.712;2022-12-08T08:37:28;6.50;;;3.97;;
22924;SDS011;11628;51.072;3.712;2022-12-08T08:39:54;7.88;;;4.03;;
22924;SDS011;11628;51.072;3.712;2022-12-08T08:42:20;10.38;;;4.45;;
22924;SDS011;11628;51.072;3.712;2022-12-08T08:44:46;17.20;;;5.45;;
22924;SDS011;11628;51.072;3.712;2022-12-08T08:47:12;12.35;;;5.40;;
22924;SDS011;11628;51.072;3.712;2022-12-08T08:49:38;10.45;;;6.78;;
22924;SDS011;11628;51.072;3.712;2022-12-08T08:52:04;11.77;;;7.75;;
22924;SDS011;11628;51.072;3.712;2022-12-08T08:54:30;17.33;;;7.60;;
22924;SDS011;11628;51.072;3.712;2022-12-08T08:56:57;18.27;;;8.02;;
22924;SDS011;11628;51.072;3.712;2022-12-08T08:59:24;11.07;;;7.10;;
22924;SDS011;11628;51.072;3.712;2022-12-08T09:01:50;15.15;;;7.97;;
22924;SDS011;11628;51.072;3.712;2022-12-08T09:04:16;12.43;;;8.57;;
22924;SDS011;11628;51.072;3.712;2022-12-08T09:06:43;15.27;;;8.95;;
22924;SDS011;11628;51.072;3.712;2022-12-08T09:09:09;15.13;;;8.93;;
22924;SDS011;11628;51.072;3.712;2022-12-08T09:11:35;17.88;;;8.82;;
22924;SDS011;11628;51.072;3.712;2022-12-08T09:14:01;17.88;;;11.55;;
22924;SDS011;11628;51.072;3.712;2022-12-08T09:16:28;23.02;;;10.70;;
22924;SDS011;11628;51.072;3.712;2022-12-08T09:18:53;21.83;;;10.95;;
22924;SDS011;11628;51.072;3.712;2022-12-08T09:21:20;17.60;;;10.13;;
22924;SDS011;11628;51.072;3.712;2022-12-08T09:23:48;14.45;;;8.95;;
22924;SDS011;11628;51.072;3.712;2022-12-08T09:26:15;12.18;;;8.98;;
22924;SDS011;11628;51.072;3.712;2022-12-08T09:28:41;14.60;;;9.10;;
22924;SDS011;11628;51.072;3.712;2022-12-08T09:31:13;15.55;;;9.68;;
22924;SDS011;11628;51.072;3.712;2022-12-08T09:33:40;14.18;;;8.93;;
22924;SDS011;11628;51.072;3.712;2022-12-08T09:36:06;13.55;;;10.23;;
22924;SDS011;11628;51.072;3.712;2022-12-08T09:38:32;17.77;;;10.35;;
22924;SDS011;11628;51.072;3.712;2022-12-08T09:40:58;16.67;;;10.77;;
22924;SDS011;11628;51.072;3.712;2022-12-08T09:43:42;22.58;;;10.98;;
22924;SDS011;11628;51.072;3.712;2022-12-08T09:46:17;22.98;;;11.57;;
22924;SDS011;11628;51.072;3.712;2022-12-08T09:48:45;16.42;;;10.32;;
22924;SDS011;11628;51.072;3.712;2022-12-08T09:51:19;14.75;;;8.93;;
22924;SDS011;11628;51.072;3.712;2022-12-08T09:53:49;16.05;;;10.38;;
22924;SDS011;11628;51.072;3.712;2022-12-08T09:56:22;15.07;;;9.77;;
22924;SDS011;11628;51.072;3.712;2022-12-08T10:01:31;15.63;;;8.93;;
22924;SDS011;11628;51.072;3.712;2022-12-08T10:04:02;16.58;;;9.00;;
22924;SDS011;11628;51.072;3.712;2022-12-08T10:06:40;18.42;;;9.90;;
22924;SDS011;11628;51.072;3.712;2022-12-08T10:14:41;13.27;;;8.27;;
22924;SDS011;11628;51.072;3.712;2022-12-08T10:17:32;14.88;;;8.50;;
22924;SDS011;11628;51.072;3.712;2022-12-08T10:20:11;12.82;;;8.15;;
22924;SDS011;11628;51.072;3.712;2022-12-08T10:22:41;14.23;;;8.95;;
22924;SDS011;11628;51.072;3.712;2022-12-08T10:27:37;12.52;;;8.63;;
22924;SDS011;11628;51.072;3.712;2022-12-08T10:30:08;14.75;;;9.38;;
22924;SDS011;11628;51.072;3.712;2022-12-08T10:32:39;19.45;;;10.20;;
22924;SDS011;11628;51.072;3.712;2022-12-08T10:35:09;15.30;;;9.32;;
22924;SDS011;11628;51.072;3.712;2022-12-08T10:37:37;15.20;;;9.90;;
22924;SDS011;11628;51.072;3.712;2022-12-08T10:40:09;24.80;;;13.43;;
22924;SDS011;11628;51.072;3.712;2022-12-08T10:42:39;16.13;;;11.77;;
22924;SDS011;11628;51.072;3.712;2022-12-08T10:47:37;18.08;;;12.25;;
22924;SDS011;11628;51.072;3.712;2022-12-08T10:52:45;12.20;;;8.23;;
22924;SDS011;11628;51.072;3.712;2022-12-08T10:56:18;12.25;;;7.88;;
22924;SDS011;11628;51.072;3.712;2022-12-08T10:58:26;11.18;;;6.85;;
22924;SDS011;11628;51.072;3.712;2022-12-08T11:03:54;9.60;;;6.07;;
22924;SDS011;11628;51.072;3.712;2022-12-08T11:09:02;13.25;;;4.78;;
22924;SDS011;11628;51.072;3.712;2022-12-08T11:11:38;7.47;;;3.75;;
22924;SDS011;11628;51.072;3.712;2022-12-08T11:14:11;5.75;;;2.88;;
22924;SDS011;11628;51.072;3.712;2022-12-08T11:16:46;7.65;;;4.57;;
22924;SDS011;11628;51.072;3.712;2022-12-08T11:19:15;5.28;;;3.00;;
22924;SDS011;11628;51.072;3.712;2022-12-08T11:21:42;8.18;;;3.80;;
22924;SDS011;11628;51.072;3.712;2022-12-08T11:26:38;6.88;;;3.83;;
22924;SDS011;11628;51.072;3.712;2022-12-08T11:29:09;5.15;;;3.08;;
22924;SDS011;11628;51.072;3.712;2022-12-08T11:31:41;6.97;;;3.67;;
22924;SDS011;11628;51.072;3.712;2022-12-08T11:34:17;8.15;;;4.68;;
22924;SDS011;11628;51.072;3.712;2022-12-08T11:36:55;6.53;;;4.20;;
22924;SDS011;11628;51.072;3.712;2022-12-08T11:39:21;4.80;;;3.35;;
22924;SDS011;11628;51.072;3.712;2022-12-08T11:41:49;5.93;;;3.50;;
22924;SDS011;11628;51.072;3.712;2022-12-08T11:44:38;6.07;;;3.30;;
22924;SDS011;11628;51.072;3.712;2022-12-08T11:47:12;7.15;;;3.72;;
22924;SDS011;11628;51.072;3.712;2022-12-08T11:49:40;6.70;;;2.90;;
22924;SDS011;11628;51.072;3.712;2022-12-08T11:52:19;5.38;;;3.15;;
22924;SDS011;11628;51.072;3.712;2022-12-08T11:58:04;6.60;;;2.72;;
22924;SDS011;11628;51.072;3.712;2022-12-08T12:00:40;5.18;;;2.72;;
22924;SDS011;11628;51.072;3.712;2022-12-08T12:03:29;8.55;;;3.50;;
22924;SDS011;11628;51.072;3.712;2022-12-08T12:06:03;5.15;;;2.65;;
22924;SDS011;11628;51.072;3.712;2022-12-08T12:17:29;6.00;;;2.80;;
22924;SDS011;11628;51.072;3.712;2022-12-08T12:19:57;7.80;;;3.85;;
22924;SDS011;11628;51.072;3.712;2022-12-08T12:22:30;7.07;;;3.05;;
22924;SDS011;11628;51.072;3.712;2022-12-08T12:24:59;7.85;;;3.30;;
22924;SDS011;11628;51.072;3.712;2022-12-08T12:27:38;9.18;;;3.78;;
22924;SDS011;11628;51.072;3.712;2022-12-08T12:30:06;6.60;;;3.05;;
22924;SDS011;11628;51.072;3.712;2022-12-08T12:32:43;8.15;;;4.38;;
22924;SDS011;11628;51.072;3.712;2022-12-08T12:38:15;6.25;;;3.88;;
22924;SDS011;11628;51.072;3.712;2022-12-08T12:41:07;6.05;;;3.20;;
22924;SDS011;11628;51.072;3.712;2022-12-08T12:43:36;4.60;;;2.25;;
22924;SDS011;11628;51.072;3.712;2022-12-08T13:05:09;3.33;;;2.30;;
22924;SDS011;11628;51.072;3.712;2022-12-08T13:08:00;3.50;;;2.13;;
22924;SDS011;11628;51.072;3.712;2022-12-08T13:10:38;2.07;;;1.50;;
22924;SDS011;11628;51.072;3.712;2022-12-08T13:15:46;3.95;;;1.65;;
22924;SDS011;11628;51.072;3.712;2022-12-08T13:18:26;4.03;;;2.28;;
22924;SDS011;11628;51.072;3.712;2022-12-08T13:21:01;7.53;;;4.40;;
22924;SDS011;11628;51.072;3.712;2022-12-08T13:34:26;2.90;;;1.70;;
22924;SDS011;11628;51.072;3.712;2022-12-08T13:42:06;4.63;;;1.77;;
22924;SDS011;11628;51.072;3.712;2022-12-08T13:47:45;2.00;;;0.60;;
22924;SDS011;11628;51.072;3.712;2022-12-08T13:50:40;2.78;;;1.35;;
22924;SDS011;11628;51.072;3.712;2022-12-08T13:53:15;6.95;;;2.90;;
22924;SDS011;11628;51.072;3.712;2022-12-08T13:55:50;14.43;;;7.88;;
22924;SDS011;11628;51.072;3.712;2022-12-08T13:58:24;3.33;;;2.80;;
22924;SDS011;11628;51.072;3.712;2022-12-08T14:01:06;4.78;;;2.05;;
22924;SDS011;11628;51.072;3.712;2022-12-08T14:03:54;5.90;;;3.53;;
22924;SDS011;11628;51.072;3.712;2022-12-08T14:06:25;2.70;;;1.90;;
22924;SDS011;11628;51.072;3.712;2022-12-08T14:08:55;3.60;;;1.75;;
22924;SDS011;11628;51.072;3.712;2022-12-08T14:11:28;3.55;;;2.08;;
22924;SDS011;11628;51.072;3.712;2022-12-08T14:14:06;2.38;;;1.48;;
22924;SDS011;11628;51.072;3.712;2022-12-08T14:16:54;5.13;;;1.95;;
22924;SDS011;11628;51.072;3.712;2022-12-08T14:19:31;2.70;;;1.20;;
22924;SDS011;11628;51.072;3.712;2022-12-08T14:21:59;4.47;;;1.55;;
22924;SDS011;11628;51.072;3.712;2022-12-08T14:24:38;2.00;;;1.30;;
22924;SDS011;11628;51.072;3.712;2022-12-08T14:27:10;3.42;;;1.65;;
22924;SDS011;11628;51.072;3.712;2022-12-08T14:29:53;4.25;;;2.42;;
22924;SDS011;11628;51.072;3.712;2022-12-08T14:37:46;3.85;;;1.88;;
22924;SDS011;11628;51.072;3.712;2022-12-08T14:42:43;5.13;;;2.38;;
22924;SDS011;11628;51.072;3.712;2022-12-08T14:45:16;7.68;;;3.03;;
22924;SDS011;11628;51.072;3.712;2022-12-08T14:47:43;10.57;;;3.47;;
22924;SDS011;11628;51.072;3.712;2022-12-08T14:53:11;8.05;;;5.70;;
22924;SDS011;11628;51.072;3.712;2022-12-08T14:55:40;3.90;;;2.97;;
22924;SDS011;11628;51.072;3.712;2022-12-08T14:58:24;4.18;;;3.15;;
22924;SDS011;11628;51.072;3.712;2022-12-08T15:00:57;3.67;;;2.97;;
22924;SDS011;11628;51.072;3.712;2022-12-08T15:03:25;5.65;;;3.88;;
22924;SDS011;11628;51.072;3.712;2022-12-08T15:05:53;8.48;;;5.63;;
22924;SDS011;11628;51.072;3.712;2022-12-08T15:08:22;6.35;;;5.05;;
22924;SDS011;11628;51.072;3.712;2022-12-08T15:13:42;5.47;;;3.65;;
22924;SDS011;11628;51.072;3.712;2022-12-08T15:16:20;4.68;;;3.85;;
22924;SDS011;11628;51.072;3.712;2022-12-08T15:21:51;10.30;;;6.00;;
22924;SDS011;11628;51.072;3.712;2022-12-08T15:24:20;13.10;;;7.45;;
22924;SDS011;11628;51.072;3.712;2022-12-08T15:26:49;10.57;;;5.97;;
22924;SDS011;11628;51.072;3.712;2022-12-08T15:29:18;9.68;;;6.18;;
22924;SDS011;11628;51.072;3.712;2022-12-08T15:31:45;11.48;;;6.82;;
22924;SDS011;11628;51.072;3.712;2022-12-08T15:34:11;15.88;;;7.93;;
22924;SDS011;11628;51.072;3.712;2022-12-08T15:36:37;12.52;;;6.07;;
22924;SDS011;11628;51.072;3.712;2022-12-08T15:39:16;9.30;;;6.30;;
22924;SDS011;11628;51.072;3.712;2022-12-08T15:41:45;12.27;;;6.88;;
22924;SDS011;11628;51.072;3.712;2022-12-08T15:44:10;13.98;;;12.50;;
22924;SDS011;11628;51.072;3.712;2022-12-08T15:46:36;11.52;;;8.60;;
22924;SDS011;11628;51.072;3.712;2022-12-08T15:49:02;10.98;;;7.57;;
22924;SDS011;11628;51.072;3.712;2022-12-08T15:51:28;15.10;;;10.32;;
22924;SDS011;11628;51.072;3.712;2022-12-08T15:53:55;12.43;;;7.90;;
22924;SDS011;11628;51.072;3.712;2022-12-08T15:56:20;11.65;;;7.25;;
22924;SDS011;11628;51.072;3.712;2022-12-08T15:58:46;9.95;;;7.28;;
22924;SDS011;11628;51.072;3.712;2022-12-08T16:01:12;8.98;;;6.20;;
22924;SDS011;11628;51.072;3.712;2022-12-08T16:03:39;11.48;;;6.85;;
22924;SDS011;11628;51.072;3.712;2022-12-08T16:06:04;11.45;;;7.70;;
22924;SDS011;11628;51.072;3.712;2022-12-08T16:08:33;12.82;;;9.13;;
22924;SDS011;11628;51.072;3.712;2022-12-08T16:10:59;10.30;;;7.82;;
22924;SDS011;11628;51.072;3.712;2022-12-08T16:13:43;10.82;;;7.93;;
22924;SDS011;11628;51.072;3.712;2022-12-08T16:16:15;18.48;;;13.93;;
22924;SDS011;11628;51.072;3.712;2022-12-08T16:18:45;27.75;;;17.88;;
22924;SDS011;11628;51.072;3.712;2022-12-08T16:21:12;26.52;;;19.10;;
22924;SDS011;11628;51.072;3.712;2022-12-08T16:23:38;13.52;;;9.68;;
22924;SDS011;11628;51.072;3.712;2022-12-08T16:26:05;16.35;;;10.25;;
22924;SDS011;11628;51.072;3.712;2022-12-08T16:28:33;12.02;;;9.65;;
22924;SDS011;11628;51.072;3.712;2022-12-08T16:30:59;11.27;;;10.05;;
22924;SDS011;11628;51.072;3.712;2022-12-08T16:33:24;15.07;;;11.90;;
22924;SDS011;11628;51.072;3.712;2022-12-08T16:35:50;13.15;;;10.88;;
22924;SDS011;11628;51.072;3.712;2022-12-08T16:38:16;15.82;;;12.10;;
22924;SDS011;11628;51.072;3.712;2022-12-08T16:40:45;13.77;;;12.32;;
22924;SDS011;11628;51.072;3.712;2022-12-08T16:43:31;13.65;;;12.25;;
22924;SDS011;11628;51.072;3.712;2022-12-08T16:45:57;19.08;;;13.60;;
22924;SDS011;11628;51.072;3.712;2022-12-08T16:48:23;16.85;;;13.52;;
22924;SDS011;11628;51.072;3.712;2022-12-08T16:50:49;17.85;;;15.27;;